createdAt,value
2019-06-07T00:00:38.016Z,11.13
2019-06-07T00:02:57.382Z,11.50
2019-06-07T00:05:26.519Z,11.80
2019-06-07T00:08:07.025Z,13.23
2019-06-07T00:10:36.694Z,12.30
2019-06-07T00:12:59.314Z,13.10
2019-06-07T00:15:29.345Z,17.13
2019-06-07T00:17:58.803Z,13.70
2019-06-07T00:20:27.958Z,13.63
2019-06-07T00:22:57.147Z,14.87
2019-06-07T00:25:26.336Z,13.50
2019-06-07T00:27:55.573Z,13.67
2019-06-07T00:30:51.179Z,13.80
2019-06-07T00:32:56.081Z,12.20
2019-06-07T00:35:25.229Z,12.17
2019-06-07T00:37:58.001Z,13.63
2019-06-07T00:40:31.874Z,13.03
2019-06-07T00:42:58.201Z,12.70
2019-06-07T00:45:27.337Z,11.40
2019-06-07T00:47:56.530Z,12.87
2019-06-07T00:50:25.691Z,12.50
2019-06-07T00:53:14.582Z,13.10
2019-06-07T00:55:27.718Z,16.23
2019-06-07T00:57:57.155Z,13.90
2019-06-07T01:00:26.525Z,13.47
2019-06-07T01:02:55.726Z,13.90
2019-06-07T01:05:31.159Z,19.87
2019-06-07T01:07:55.751Z,14.80
2019-06-07T01:10:51.670Z,13.30
2019-06-07T01:12:56.025Z,13.83
2019-06-07T01:15:28.845Z,14.23
2019-06-07T01:20:27.107Z,14.40
2019-06-07T01:22:56.341Z,13.27
2019-06-07T01:25:26.448Z,14.70
2019-06-07T01:27:56.152Z,13.87
2019-06-07T01:30:26.693Z,14.37
2019-06-07T01:32:56.038Z,15.03
2019-06-07T01:35:25.567Z,14.37
2019-06-07T01:37:54.902Z,13.57
2019-06-07T01:40:30.511Z,13.90
2019-06-07T01:42:55.155Z,13.53
2019-06-07T01:45:27.032Z,13.97
2019-06-07T01:47:55.432Z,15.53
2019-06-07T01:50:26.973Z,17.67
2019-06-07T01:52:55.544Z,14.80
2019-06-07T01:55:27.295Z,14.53
2019-06-07T01:57:55.672Z,15.80
2019-06-07T02:00:26.675Z,17.83
2019-06-07T02:02:55.872Z,15.97
2019-06-07T02:05:29.968Z,18.67
2019-06-07T02:07:56.038Z,20.13
2019-06-07T02:10:29.895Z,23.97
2019-06-07T02:12:56.188Z,20.40
2019-06-07T02:15:30.689Z,20.10
2019-06-07T02:17:57.762Z,20.37
2019-06-07T02:20:31.883Z,19.07
2019-06-07T02:22:58.085Z,18.90
2019-06-07T02:25:38.399Z,20.63
2019-06-07T02:28:25.948Z,21.03
2019-06-07T02:30:49.343Z,19.97
2019-06-07T02:33:02.488Z,22.63
2019-06-07T02:35:38.921Z,21.47
2019-06-07T02:38:02.536Z,20.57
2019-06-07T02:40:36.974Z,22.40
2019-06-07T02:43:03.146Z,20.83
2019-06-07T02:45:37.769Z,20.17
2019-06-07T02:48:03.441Z,21.20
2019-06-07T02:50:38.289Z,20.33
2019-06-07T02:53:04.730Z,21.90
2019-06-07T02:56:10.964Z,22.60
2019-06-07T02:58:04.841Z,20.73
2019-06-07T03:01:05.992Z,20.43
2019-06-07T03:03:16.612Z,18.80
2019-06-07T03:05:46.453Z,19.97
2019-06-07T03:08:16.474Z,20.20
2019-06-07T03:10:47.085Z,20.40
2019-06-07T03:13:18.945Z,22.60
2019-06-07T03:15:50.344Z,25.40
2019-06-07T03:18:41.211Z,22.53
2019-06-07T03:21:12.421Z,26.30
2019-06-07T03:23:43.431Z,24.23
2019-06-07T03:26:12.736Z,26.47
2019-06-07T03:28:42.114Z,25.47
2019-06-07T03:31:11.346Z,26.30
2019-06-07T03:33:45.278Z,28.87
2019-06-07T03:36:23.920Z,26.73
2019-06-07T03:38:44.331Z,30.20
2019-06-07T03:41:13.503Z,25.23
2019-06-07T03:43:42.739Z,25.87
2019-06-07T03:46:12.005Z,26.63
2019-06-07T03:48:41.592Z,27.73
2019-06-07T03:51:24.137Z,31.53
2019-06-07T03:53:41.844Z,31.20
2019-06-07T03:56:12.003Z,35.37
2019-06-07T03:58:49.814Z,34.63
2019-06-07T04:01:14.386Z,35.20
2019-06-07T04:03:50.920Z,33.30
2019-06-07T04:06:15.716Z,33.83
2019-06-07T04:08:44.915Z,33.07
2019-06-07T04:11:14.686Z,34.47
2019-06-07T04:13:43.999Z,33.63
2019-06-07T04:16:13.252Z,35.03
2019-06-07T04:18:42.705Z,35.17
2019-06-07T04:21:11.979Z,37.67
2019-06-07T04:23:45.518Z,33.40
2019-06-07T04:26:12.070Z,35.17
2019-06-07T04:29:30.438Z,37.13
2019-06-07T04:31:12.521Z,36.90
2019-06-07T04:33:43.743Z,33.67
2019-06-07T04:36:12.850Z,34.83
2019-06-07T04:38:43.025Z,34.63
2019-06-07T04:41:12.551Z,36.70
2019-06-07T04:43:42.834Z,34.17
2019-06-07T04:46:13.318Z,36.63
2019-06-07T04:48:44.002Z,34.23
2019-06-07T04:51:15.510Z,37.13
2019-06-07T04:53:44.792Z,33.93
2019-06-07T04:56:14.136Z,35.40
2019-06-07T04:58:43.967Z,32.67
2019-06-07T05:01:26.645Z,35.20
2019-06-07T05:03:44.631Z,35.37
2019-06-07T05:06:14.240Z,34.60
2019-06-07T05:08:43.947Z,34.33
2019-06-07T05:11:13.225Z,32.97
2019-06-07T05:13:43.834Z,37.87
2019-06-07T05:16:13.464Z,32.93
2019-06-07T05:18:43.384Z,34.70
2019-06-07T05:21:12.819Z,32.30
2019-06-07T05:24:05.645Z,32.07
2019-06-07T05:26:12.963Z,33.40
2019-06-07T05:28:43.033Z,32.47
2019-06-07T05:31:13.087Z,32.10
2019-06-07T05:33:43.674Z,31.27
2019-06-07T05:36:13.063Z,32.50
2019-06-07T05:38:44.723Z,30.27
2019-06-07T05:41:13.247Z,30.80
2019-06-07T05:43:51.509Z,29.43
2019-06-07T05:46:13.373Z,30.20
2019-06-07T05:48:43.931Z,31.70
2019-06-07T05:51:13.236Z,31.97
2019-06-07T05:53:45.702Z,35.03
2019-06-07T05:56:14.188Z,34.40
2019-06-07T05:58:44.733Z,26.67
2019-06-07T06:01:42.024Z,26.00
2019-06-07T06:03:48.118Z,26.53
2019-06-07T06:06:16.094Z,25.40
2019-06-07T06:08:47.942Z,25.60
2019-06-07T06:11:16.440Z,26.47
2019-06-07T06:14:05.946Z,25.47
2019-06-07T06:16:17.712Z,24.20
2019-06-07T06:18:48.832Z,24.97
2019-06-07T06:21:20.135Z,22.53
2019-06-07T06:23:52.070Z,21.13
2019-06-07T06:26:19.934Z,21.47
2019-06-07T06:28:49.901Z,19.83
2019-06-07T06:31:19.249Z,18.80
2019-06-07T06:33:49.860Z,18.03
2019-06-07T06:36:19.689Z,18.30
2019-06-07T06:38:51.303Z,17.77
2019-06-07T06:41:21.052Z,16.97
2019-06-07T06:43:52.498Z,17.23
2019-06-07T06:46:37.920Z,17.70
2019-06-07T06:48:55.133Z,16.40
2019-06-07T06:51:23.681Z,17.93
2019-06-07T06:53:53.026Z,19.30
2019-06-07T06:56:22.216Z,16.83
2019-06-07T07:01:23.514Z,14.70
2019-06-07T07:04:12.795Z,15.77
2019-06-07T07:06:26.322Z,15.00
2019-06-07T07:08:54.874Z,13.50
2019-06-07T07:11:24.075Z,14.27
2019-06-07T07:13:56.464Z,15.27
2019-06-07T07:16:24.405Z,16.20
2019-06-07T07:18:54.780Z,15.17
2019-06-07T07:21:24.307Z,15.60
2019-06-07T07:24:19.678Z,19.67
2019-06-07T07:26:24.439Z,14.33
2019-06-07T07:28:57.257Z,13.20
2019-06-07T07:31:27.564Z,13.60
2019-06-07T07:34:30.936Z,13.73
2019-06-07T07:36:39.364Z,14.87
2019-06-07T07:39:05.314Z,14.97
2019-06-07T07:41:30.764Z,16.27
2019-06-07T07:44:06.745Z,18.27
2019-06-07T07:46:30.950Z,17.57
2019-06-07T07:49:00.178Z,17.77
2019-06-07T07:51:29.349Z,17.80
2019-06-07T07:54:10.316Z,18.25
2019-06-07T07:56:30.511Z,18.55
2019-06-07T07:59:02.004Z,18.35
2019-06-07T08:01:30.957Z,18.00
2019-06-07T08:04:00.127Z,19.70
2019-06-07T08:06:29.353Z,17.20
2019-06-07T08:08:59.136Z,19.35
2019-06-07T08:11:28.376Z,17.37
2019-06-07T08:13:58.836Z,17.35
2019-06-07T08:16:28.204Z,17.77
2019-06-07T08:19:03.606Z,16.45
2019-06-07T08:21:28.882Z,17.20
2019-06-07T08:24:03.445Z,16.50
2019-06-07T08:26:29.144Z,18.85
2019-06-07T08:29:02.334Z,21.20
2019-06-07T08:31:29.384Z,19.42
2019-06-07T08:34:00.740Z,17.07
2019-06-07T08:36:41.960Z,14.90
2019-06-07T08:39:07.335Z,11.03
2019-06-07T08:41:33.483Z,11.65
2019-06-07T08:44:22.245Z,11.00
2019-06-07T08:46:33.673Z,9.67
2019-06-07T08:49:04.706Z,9.25
2019-06-07T08:51:34.108Z,8.80
2019-06-07T08:54:21.721Z,9.03
2019-06-07T08:56:36.074Z,10.53
2019-06-07T08:59:11.274Z,10.63
2019-06-07T09:01:36.467Z,9.20
2019-06-07T09:04:09.976Z,11.93
2019-06-07T09:09:08.359Z,8.93
2019-06-07T09:11:37.776Z,8.30
2019-06-07T09:14:09.195Z,7.12
2019-06-07T09:16:38.164Z,11.38
2019-06-07T09:19:10.873Z,9.60
2019-06-07T09:21:38.361Z,7.90
2019-06-07T09:24:11.476Z,8.60
2019-06-07T09:26:38.478Z,9.57
2019-06-07T09:29:11.477Z,8.83
2019-06-07T09:31:51.750Z,9.45
2019-06-07T09:34:13.934Z,9.30
2019-06-07T09:36:40.685Z,8.43
2019-06-07T09:39:12.461Z,8.45
2019-06-07T09:41:49.750Z,9.00
2019-06-07T09:44:23.933Z,9.83
2019-06-07T09:46:44.483Z,9.30
2019-06-07T09:49:28.932Z,8.78
2019-06-07T09:51:44.659Z,8.30
2019-06-07T09:55:02.296Z,9.28
2019-06-07T09:56:46.329Z,8.75
2019-06-07T09:59:15.883Z,8.63
2019-06-07T10:01:45.086Z,8.50
2019-06-07T10:04:30.360Z,9.93
2019-06-07T10:06:45.675Z,9.68
2019-06-07T10:11:45.985Z,11.15
2019-06-07T10:14:15.192Z,9.20
2019-06-07T10:16:47.120Z,8.68
2019-06-07T10:19:17.315Z,9.35
2019-06-07T10:21:46.477Z,9.45
2019-06-07T10:24:15.694Z,9.80
2019-06-07T10:26:45.025Z,10.53
2019-06-07T10:29:14.199Z,11.95
2019-06-07T10:31:43.546Z,10.08
2019-06-07T10:34:12.754Z,10.72
2019-06-07T10:36:42.066Z,9.90
2019-06-07T10:39:11.594Z,8.65
2019-06-07T10:41:41.169Z,8.08
2019-06-07T10:44:11.473Z,8.40
2019-06-07T10:46:40.924Z,9.03
2019-06-07T10:49:10.256Z,7.80
2019-06-07T10:51:39.552Z,6.83
2019-06-07T10:54:20.988Z,7.53
2019-06-07T10:56:39.991Z,7.90
2019-06-07T10:59:09.800Z,7.20
2019-06-07T11:01:40.328Z,6.95
2019-06-07T11:04:09.664Z,7.78
2019-06-07T11:06:40.393Z,6.80
2019-06-07T11:09:10.033Z,5.58
2019-06-07T11:11:39.632Z,6.60
2019-06-07T11:14:08.873Z,6.00
2019-06-07T11:16:38.086Z,6.20
2019-06-07T11:19:08.276Z,6.67
2019-06-07T11:21:37.520Z,6.12
2019-06-07T11:24:08.069Z,5.22
2019-06-07T11:26:37.269Z,6.55
2019-06-07T11:29:06.717Z,4.90
2019-06-07T11:31:35.937Z,5.22
2019-06-07T11:34:06.356Z,4.70
2019-06-07T11:36:35.939Z,5.20
2019-06-07T11:39:06.846Z,4.55
2019-06-07T11:41:36.023Z,4.45
2019-06-07T11:44:06.586Z,5.25
2019-06-07T11:46:35.944Z,6.05
2019-06-07T11:49:06.339Z,5.40
2019-06-07T11:51:35.756Z,7.10
2019-06-07T11:54:05.045Z,4.90
2019-06-07T11:56:34.273Z,5.47
2019-06-07T11:59:03.692Z,6.37
2019-06-07T12:01:32.887Z,5.63
2019-06-07T12:04:02.243Z,5.87
2019-06-07T12:06:31.482Z,5.55
2019-06-07T12:09:00.654Z,6.85
2019-06-07T12:11:29.827Z,6.15
2019-06-07T12:13:59.038Z,5.87
2019-06-07T12:16:28.264Z,4.92
2019-06-07T12:18:57.376Z,5.83
2019-06-07T12:21:26.548Z,4.30
2019-06-07T12:23:55.729Z,5.60
2019-06-07T12:26:24.992Z,5.17
2019-06-07T12:28:55.299Z,5.65
2019-06-07T12:31:24.499Z,4.90
2019-06-07T12:33:53.814Z,8.18
2019-06-07T12:36:23.139Z,6.08
2019-06-07T12:38:52.303Z,5.65
2019-06-07T12:41:22.371Z,4.50
2019-06-07T12:43:51.579Z,6.20
2019-06-07T12:46:26.370Z,4.67
2019-06-07T12:48:51.739Z,5.10
2019-06-07T12:51:21.317Z,5.15
2019-06-07T12:53:50.656Z,4.75
2019-06-07T12:56:20.111Z,4.62
2019-06-07T12:58:49.389Z,4.80
2019-06-07T13:01:20.913Z,5.00
2019-06-07T13:03:50.707Z,5.50
2019-06-07T13:06:19.887Z,5.00
2019-06-07T13:08:49.120Z,5.35
2019-06-07T13:11:24.586Z,4.30
2019-06-07T13:13:49.429Z,4.30
2019-06-07T13:16:20.021Z,5.07
2019-06-07T13:18:49.251Z,4.70
2019-06-07T13:21:18.488Z,6.03
2019-06-07T13:23:47.696Z,4.50
2019-06-07T13:26:18.301Z,4.20
2019-06-07T16:17:20.399Z,4.67
2019-06-07T16:19:49.599Z,3.70
2019-06-07T16:22:18.867Z,4.37
2019-06-07T16:24:48.104Z,3.90
2019-06-07T16:27:17.529Z,4.40
2019-06-07T16:29:46.738Z,3.52
2019-06-07T16:32:15.932Z,5.83
2019-06-07T16:34:46.037Z,4.42
2019-06-07T16:37:15.446Z,3.67
2019-06-07T16:39:44.810Z,3.20
2019-06-07T16:42:14.026Z,4.42
2019-06-07T16:44:44.714Z,4.28
2019-06-07T16:47:13.925Z,4.97
2019-06-07T16:49:43.082Z,4.05
2019-06-07T16:52:12.320Z,4.22
2019-06-07T16:54:41.564Z,3.85
2019-06-07T16:57:10.740Z,4.70
2019-06-07T16:59:40.970Z,4.42
2019-06-07T17:02:10.171Z,4.47
2019-06-07T17:04:39.486Z,7.80
2019-06-07T17:07:08.617Z,4.60
2019-06-07T17:09:38.134Z,4.17
2019-06-07T17:12:07.390Z,5.97
2019-06-07T17:14:36.576Z,6.28
2019-06-07T17:17:05.753Z,5.92
2019-06-07T17:19:34.967Z,4.17
2019-06-07T17:22:04.175Z,5.58
2019-06-07T17:24:33.402Z,5.07
2019-06-07T17:27:04.377Z,4.75
2019-06-07T17:29:34.840Z,5.28
2019-06-07T17:32:04.014Z,5.37
2019-06-07T17:34:33.284Z,4.65
2019-06-07T17:37:02.531Z,4.78
2019-06-07T17:39:31.748Z,4.40
2019-06-07T17:42:02.635Z,4.47
2019-06-07T17:44:32.106Z,4.33
2019-06-07T17:47:03.353Z,4.12
2019-06-07T17:49:32.573Z,5.90
2019-06-07T17:52:02.286Z,4.53
2019-06-07T17:54:31.652Z,5.33
2019-06-07T17:57:00.893Z,5.70
2019-06-07T17:59:30.116Z,6.95
2019-06-07T18:02:14.218Z,5.35
2019-06-07T18:04:30.653Z,5.40
2019-06-07T18:06:59.830Z,6.12
2019-06-07T18:09:29.612Z,6.57
2019-06-07T18:12:00.035Z,6.77
2019-06-07T18:14:29.559Z,5.70
2019-06-07T18:16:58.762Z,8.80
2019-06-07T18:19:28.012Z,5.47
2019-06-07T18:21:59.125Z,5.72
2019-06-07T18:24:28.367Z,6.72
2019-06-07T18:26:58.901Z,5.70
2019-06-07T18:29:28.325Z,4.28
2019-06-07T18:32:00.208Z,6.37
2019-06-07T18:34:28.600Z,6.03
2019-06-07T18:36:57.809Z,5.00
2019-06-07T18:39:27.062Z,5.17
2019-06-07T18:41:59.462Z,6.83
2019-06-07T18:44:28.866Z,5.25
2019-06-07T18:46:58.649Z,6.35
2019-06-07T18:49:28.247Z,4.20
2019-06-07T18:52:17.235Z,3.72
2019-06-07T18:54:46.881Z,3.40
2019-06-07T18:57:16.147Z,2.92
2019-06-07T18:59:45.435Z,8.83
2019-06-07T19:02:14.544Z,2.62
2019-06-07T19:04:43.877Z,2.92
2019-06-07T19:07:13.642Z,3.15
2019-06-07T19:09:44.482Z,3.80
2019-06-07T19:12:16.824Z,3.80
2019-06-07T19:14:49.227Z,3.00
2019-06-07T19:17:18.968Z,3.98
2019-06-07T19:19:49.745Z,3.33
2019-06-07T19:22:19.303Z,2.60
2019-06-07T19:24:49.987Z,3.83
2019-06-07T19:27:19.614Z,3.75
2019-06-07T19:29:49.027Z,3.22
2019-06-07T19:32:18.346Z,2.80
2019-06-07T19:34:48.263Z,4.60
2019-06-07T19:37:18.288Z,3.75
2019-06-07T19:39:47.833Z,3.72
2019-06-07T19:42:17.217Z,2.83
2019-06-07T19:44:54.265Z,2.20
2019-06-07T19:47:17.994Z,4.25
2019-06-07T19:49:48.936Z,3.92
2019-06-07T19:52:18.369Z,3.33
2019-06-07T19:54:47.887Z,3.10
2019-06-07T19:57:17.373Z,2.55
2019-06-07T19:59:46.672Z,2.62
2019-06-07T20:02:16.490Z,3.67
2019-06-07T20:04:46.072Z,2.80
2019-06-07T20:07:15.395Z,3.62
2019-06-07T20:09:46.791Z,2.08
2019-06-07T20:12:16.516Z,1.93
2019-06-07T20:14:45.885Z,4.30
2019-06-07T20:17:15.193Z,2.55
2019-06-07T20:19:45.570Z,2.60
2019-06-07T20:22:14.830Z,2.60
2019-06-07T20:24:46.029Z,3.25
2019-06-07T20:27:16.709Z,2.43
2019-06-07T20:29:45.912Z,2.23
2019-06-07T20:32:15.185Z,2.50
2019-06-07T20:34:44.890Z,3.08
2019-06-07T20:37:14.627Z,1.82
2019-06-07T20:39:44.299Z,1.98
2019-06-07T20:42:14.036Z,2.20
2019-06-07T20:44:43.269Z,2.80
2019-06-07T20:48:22.005Z,2.85
2019-06-07T20:50:52.198Z,1.60
2019-06-07T20:53:21.464Z,2.10
2019-06-07T20:55:50.678Z,2.33
2019-06-07T20:58:19.908Z,2.00
2019-06-07T21:00:49.451Z,3.12
2019-06-07T21:03:19.836Z,2.77
2019-06-07T21:05:50.612Z,2.22
2019-06-07T21:08:19.881Z,2.47
2019-06-07T21:10:49.087Z,2.07
2019-06-07T21:13:18.305Z,1.70
2019-06-07T21:15:49.253Z,2.87
2019-06-07T21:18:20.069Z,2.02
2019-06-07T21:20:49.526Z,1.82
2019-06-07T21:23:20.490Z,2.62
2019-06-07T21:25:49.671Z,2.47
2019-06-07T21:28:18.924Z,2.62
2019-06-07T21:30:48.350Z,4.83
2019-06-07T21:33:17.539Z,3.23
2019-06-07T21:35:48.075Z,2.35
2019-06-07T21:38:17.284Z,2.72
2019-06-07T21:40:46.512Z,2.25
2019-06-07T21:43:15.847Z,2.17
2019-06-07T21:45:45.046Z,2.17
2019-06-07T21:48:14.567Z,2.60
2019-06-07T21:50:43.890Z,2.35
2019-06-07T21:53:13.131Z,2.40
2019-06-07T21:55:42.278Z,1.90
2019-06-07T21:58:11.485Z,2.37
2019-06-07T22:01:17.411Z,2.25
2019-06-07T22:03:46.619Z,2.35
2019-06-07T22:06:16.012Z,2.83
2019-06-07T22:08:45.351Z,2.30
2019-06-07T22:11:14.521Z,2.83
2019-06-07T22:13:43.723Z,3.17
2019-06-07T22:16:26.791Z,1.90
2019-06-07T22:18:43.999Z,3.30
2019-06-07T22:21:13.151Z,2.87
2019-06-07T22:23:43.737Z,2.37
2019-06-07T22:26:13.349Z,3.12
2019-06-07T22:28:42.598Z,3.30
2019-06-07T22:31:12.830Z,4.53
2019-06-07T22:33:42.069Z,3.20
2019-06-07T22:36:11.258Z,3.33
2019-06-07T22:38:40.441Z,3.43
2019-06-07T22:41:09.655Z,3.02
2019-06-07T22:43:38.824Z,3.02
2019-06-07T22:46:08.711Z,3.05
2019-06-07T22:48:37.971Z,3.35
2019-06-07T22:51:10.512Z,2.85
2019-06-07T22:53:42.583Z,3.03
2019-06-07T22:56:37.422Z,3.08
2019-06-07T22:59:07.956Z,2.42
2019-06-07T23:01:37.586Z,2.75
2019-06-07T23:04:06.978Z,3.45
2019-06-07T23:06:36.168Z,2.40
2019-06-07T23:09:06.425Z,3.63
2019-06-07T23:11:35.584Z,3.50
2019-06-07T23:14:04.777Z,5.90
2019-06-07T23:16:33.941Z,4.47
2019-06-07T23:19:03.195Z,5.47
2019-06-07T23:21:32.484Z,3.42
2019-06-07T23:24:01.673Z,3.47
2019-06-07T23:26:30.860Z,3.55
2019-06-07T23:28:59.993Z,5.67
2019-06-07T23:31:29.187Z,4.83
2019-06-07T23:33:58.345Z,4.75
2019-06-07T23:36:27.646Z,4.10
2019-06-07T23:38:56.838Z,3.92
2019-06-07T23:41:26.032Z,4.17
2019-06-07T23:43:55.185Z,4.37
2019-06-07T23:46:24.383Z,5.40
2019-06-07T23:48:53.666Z,4.17
2019-06-07T23:51:22.845Z,4.28
2019-06-07T23:53:52.010Z,4.78
2019-06-07T23:56:22.233Z,5.00
2019-06-07T23:58:51.629Z,3.60
